Time;durP1;ratioP1;P1;durP2;ratioP2;P2;SDS_P1;SDS_P2;PMS_P1;PMS_P2;Temp;Humidity;BMP_temperature;BMP_pressure;BME280_temperature;BME280_humidity;BME280_pressure;Samples;Min_cycle;Max_cycle;Signal;HPM_P1;HPM_P2
2021/11/30 00:00:14;;;;;;;0.95;0.80;;;;;;;-2.15;100.00;92857.38;2097767;28;20032;-88
2021/11/30 00:01:16;;;;;;;1.38;0.90;;;;;;;-2.50;100.00;92854.72;2097140;28;20020;-87
2021/11/30 00:02:17;;;;;;;1.38;0.93;;;;;;;-2.20;100.00;92857.59;2096746;28;20032;-86
2021/11/30 00:03:18;;;;;;;1.13;0.80;;;;;;;-2.28;100.00;92853.34;2085786;28;20509;-87
2021/11/30 00:04:19;;;;;;;0.80;0.80;;;;;;;-2.32;100.00;92858.50;2089336;28;20599;-87
2021/11/30 00:05:22;;;;;;;1.00;0.80;;;;;;;-2.27;100.00;92849.63;2083775;28;20079;-88
2021/11/30 00:06:47;;;;;;;0.70;0.70;;;;;;;-2.16;100.00;92863.69;2086647;28;20048;-86
2021/11/30 00:07:53;;;;;;;0.82;0.73;;;;;;;-2.24;100.00;92862.00;2096358;28;20016;-86
2021/11/30 00:09:08;;;;;;;1.40;0.73;;;;;;;-2.15;100.00;92864.44;2087455;28;20106;-87
2021/11/30 00:11:11;;;;;;;1.40;0.80;;;;;;;-2.38;100.00;92861.69;2097743;28;20043;-87
2021/11/30 00:12:14;;;;;;;0.52;0.52;;;;;;;-2.12;100.00;92861.13;2105713;28;20101;-86
2021/11/30 00:13:20;;;;;;;1.45;0.82;;;;;;;-2.14;100.00;92863.34;2089009;28;20497;-88
2021/11/30 00:14:21;;;;;;;1.13;0.80;;;;;;;-2.26;100.00;92861.59;2082750;28;20534;-86
2021/11/30 00:15:22;;;;;;;0.85;0.75;;;;;;;-2.04;100.00;92868.06;2083149;28;20036;-89
2021/11/30 00:16:23;;;;;;;0.50;0.50;;;;;;;-2.07;100.00;92866.84;2097736;28;20354;-87
2021/11/30 00:17:25;;;;;;;0.80;0.80;;;;;;;-2.08;100.00;92875.81;2097528;28;20158;-85
2021/11/30 00:18:32;;;;;;;0.80;0.70;;;;;;;-2.14;100.00;92877.19;2098310;28;20162;-87
2021/11/30 00:19:34;;;;;;;0.80;0.80;;;;;;;-2.13;100.00;92870.84;2090426;28;20120;-88
2021/11/30 00:20:37;;;;;;;1.08;0.65;;;;;;;-2.10;100.00;92885.13;2089226;28;20022;-88
2021/11/30 00:21:38;;;;;;;0.95;0.65;;;;;;;-2.24;100.00;92882.94;2081846;28;20470;-87
2021/11/30 00:22:39;;;;;;;1.60;0.93;;;;;;;-2.41;100.00;92881.47;2089165;28;20032;-87
2021/11/30 00:23:40;;;;;;;1.30;0.80;;;;;;;-2.39;100.00;92878.50;2089158;28;20071;-87
2021/11/30 00:24:42;;;;;;;1.20;0.80;;;;;;;-2.36;100.00;92880.44;2086808;28;20017;-86
2021/11/30 00:25:43;;;;;;;0.93;0.80;;;;;;;-2.19;100.00;92887.19;2082191;28;20038;-87
2021/11/30 00:26:44;;;;;;;0.70;0.70;;;;;;;-2.36;100.00;92881.22;2083964;28;20021;-88
2021/11/30 00:27:45;;;;;;;1.00;0.70;;;;;;;-2.38;100.00;92878.16;2091011;28;20028;-85
2021/11/30 00:28:48;;;;;;;0.95;0.82;;;;;;;-2.25;100.00;92891.91;2094165;28;20020;-86
2021/11/30 00:29:49;;;;;;;1.58;0.80;;;;;;;-2.26;100.00;92887.03;2088725;28;20389;-88
2021/11/30 00:30:50;;;;;;;0.88;0.82;;;;;;;-2.14;100.00;92885.06;2089040;28;20436;-86
2021/11/30 00:31:52;;;;;;;0.70;0.70;;;;;;;-2.13;100.00;92901.53;2085181;28;20025;-87
2021/11/30 00:32:54;;;;;;;1.08;0.65;;;;;;;-2.20;100.00;92885.66;2087410;28;20025;-85
2021/11/30 00:33:55;;;;;;;0.60;0.60;;;;;;;-2.37;100.00;92895.41;2092084;28;20107;-85
2021/11/30 00:34:56;;;;;;;0.60;0.60;;;;;;;-2.22;100.00;92888.63;2097715;28;20080;-85
2021/11/30 00:35:57;;;;;;;0.65;0.60;;;;;;;-2.38;100.00;92890.47;2097420;28;20025;-87
2021/11/30 00:36:59;;;;;;;0.60;0.60;;;;;;;-2.30;100.00;92892.94;2086004;28;20018;-87
2021/11/30 00:38:00;;;;;;;0.70;0.70;;;;;;;-2.34;100.00;92896.56;2101914;28;20020;-87
2021/11/30 00:39:03;;;;;;;0.77;0.77;;;;;;;-2.30;100.00;92892.16;2098702;28;20119;-87
2021/11/30 00:40:04;;;;;;;0.82;0.77;;;;;;;-2.31;100.00;92888.78;2084668;28;20021;-86
2021/11/30 00:41:05;;;;;;;1.60;1.10;;;;;;;-2.31;100.00;92888.03;2088117;28;20493;-86
2021/11/30 00:42:07;;;;;;;0.75;0.70;;;;;;;-2.24;100.00;92895.28;2089572;28;20079;-86
2021/11/30 00:43:09;;;;;;;2.50;0.80;;;;;;;-2.29;100.00;92897.06;2090373;28;20096;-86
2021/11/30 00:44:14;;;;;;;0.80;0.80;;;;;;;-2.39;100.00;92900.19;2105051;28;20103;-87
2021/11/30 00:45:20;;;;;;;1.42;0.70;;;;;;;-2.45;100.00;92896.34;2097049;28;20025;-86
2021/11/30 00:46:40;;;;;;;0.75;0.75;;;;;;;-2.46;100.00;92896.66;2090602;28;20079;-87
2021/11/30 00:49:19;;;;;;;0.98;0.57;;;;;;;-2.47;100.00;92901.13;2087363;28;20043;-88
2021/11/30 00:50:23;;;;;;;1.38;0.85;;;;;;;-2.42;100.00;92898.25;2098231;28;20797;-85
2021/11/30 00:51:24;;;;;;;0.75;0.75;;;;;;;-2.34;100.00;92905.16;2090337;28;20449;-86
2021/11/30 00:52:26;;;;;;;1.15;0.70;;;;;;;-2.24;100.00;92903.13;2088677;28;20063;-86
2021/11/30 00:53:28;;;;;;;1.65;1.10;;;;;;;-2.20;100.00;92902.09;2097187;28;20397;-86
2021/11/30 00:54:29;;;;;;;0.60;0.60;;;;;;;-2.20;100.00;92909.22;2098638;28;20082;-85
2021/11/30 00:55:31;;;;;;;0.80;0.80;;;;;;;-2.36;100.00;92904.75;2099825;28;20028;-85
2021/11/30 00:56:32;;;;;;;0.90;0.88;;;;;;;-2.43;100.00;92911.69;2097196;28;20063;-87
2021/11/30 00:57:39;;;;;;;0.70;0.68;;;;;;;-2.40;100.00;92906.53;2080796;28;20834;-86
2021/11/30 00:58:40;;;;;;;1.45;0.90;;;;;;;-2.34;100.00;92914.88;2090522;28;20027;-86
2021/11/30 00:59:41;;;;;;;1.95;1.00;;;;;;;-2.13;100.00;92919.84;2088657;28;20028;-87
2021/11/30 01:00:43;;;;;;;0.75;0.65;;;;;;;-2.01;100.00;92916.38;2088854;28;20025;-85
2021/11/30 01:01:45;;;;;;;0.95;0.88;;;;;;;-2.10;100.00;92921.78;2089061;28;20024;-86
2021/11/30 01:02:47;;;;;;;0.90;0.82;;;;;;;-2.41;100.00;92917.34;2104329;28;20051;-85
2021/11/30 01:04:12;;;;;;;1.08;0.90;;;;;;;-2.42;100.00;92926.28;2097032;28;20028;-86
2021/11/30 01:05:15;;;;;;;1.02;1.00;;;;;;;-2.39;100.00;92915.91;2099399;28;20107;-87
2021/11/30 01:06:39;;;;;;;1.10;0.95;;;;;;;-2.22;100.00;92927.13;2109458;28;20050;-86
2021/11/30 01:07:46;;;;;;;0.93;0.82;;;;;;;-2.00;100.00;92930.97;2095175;28;20044;-85
2021/11/30 01:08:48;;;;;;;0.93;0.77;;;;;;;-2.11;100.00;92936.75;2090553;28;20124;-86
2021/11/30 01:10:14;;;;;;;1.00;0.88;;;;;;;-2.14;100.00;92936.66;2097719;28;20023;-87
2021/11/30 01:11:15;;;;;;;0.90;0.85;;;;;;;-2.03;100.00;92937.63;2093415;28;20120;-87
2021/11/30 01:12:18;;;;;;;0.98;0.98;;;;;;;-2.25;100.00;92951.34;2097851;28;20974;-86
2021/11/30 01:13:20;;;;;;;2.20;1.20;;;;;;;-2.07;100.00;92944.66;2102967;28;20042;-86
2021/11/30 01:14:22;;;;;;;2.88;1.05;;;;;;;-2.12;100.00;92942.31;2097023;28;20036;-89
2021/11/30 01:15:24;;;;;;;2.95;1.00;;;;;;;-2.13;100.00;92944.16;2097511;28;20540;-86
2021/11/30 01:16:25;;;;;;;2.60;0.88;;;;;;;-2.13;100.00;92961.75;2089491;28;20029;-87
2021/11/30 01:17:27;;;;;;;2.25;1.30;;;;;;;-2.31;100.00;92956.09;2089178;28;20496;-85
2021/11/30 01:18:28;;;;;;;1.50;1.38;;;;;;;-2.36;100.00;92961.59;2088880;28;20773;-86
2021/11/30 01:19:29;;;;;;;1.15;1.05;;;;;;;-2.24;100.00;92965.94;2080334;28;20028;-87
2021/11/30 01:20:30;;;;;;;1.30;1.10;;;;;;;-2.23;100.00;92968.25;2086814;28;20653;-87
2021/11/30 01:21:35;;;;;;;2.72;1.13;;;;;;;-2.22;100.00;92967.16;2089698;28;20035;-86
2021/11/30 01:22:42;;;;;;;2.25;1.00;;;;;;;-2.16;100.00;92968.41;2081797;28;20029;-88
2021/11/30 01:23:43;;;;;;;0.93;0.90;;;;;;;-2.14;100.00;92974.06;2090395;28;20028;-87
2021/11/30 01:24:46;;;;;;;1.45;1.20;;;;;;;-1.99;100.00;92967.28;2097263;28;20020;-86
2021/11/30 01:25:52;;;;;;;1.42;1.10;;;;;;;-2.11;100.00;92962.16;2097475;28;20028;-86
2021/11/30 01:26:53;;;;;;;2.58;0.95;;;;;;;-2.00;100.00;92968.41;2090811;28;20469;-87
2021/11/30 01:27:54;;;;;;;2.00;1.30;;;;;;;-1.88;100.00;92970.91;2088336;28;20030;-85
2021/11/30 01:28:55;;;;;;;2.55;0.85;;;;;;;-2.01;100.00;92971.38;2094708;28;20025;-86
2021/11/30 01:29:56;;;;;;;1.05;1.00;;;;;;;-2.04;100.00;92978.78;2088650;28;20067;-86
2021/11/30 01:30:58;;;;;;;4.20;1.02;;;;;;;-2.13;100.00;92977.44;2088898;28;20421;-86
2021/11/30 01:31:59;;;;;;;1.40;1.00;;;;;;;-2.44;100.00;92960.66;2096805;28;20454;-87
2021/11/30 01:33:00;;;;;;;1.20;1.10;;;;;;;-2.48;100.00;92959.81;2096964;28;20017;-86
2021/11/30 01:34:05;;;;;;;2.95;1.17;;;;;;;-2.50;100.00;92961.22;2098452;28;20031;-85
2021/11/30 01:35:13;;;;;;;2.75;1.30;;;;;;;-2.41;100.00;92961.84;2087647;28;20025;-85
2021/11/30 01:36:18;;;;;;;1.42;1.10;;;;;;;-2.28;100.00;92965.88;2097608;28;20111;-86
2021/11/30 01:37:24;;;;;;;2.63;1.42;;;;;;;-2.38;100.00;92969.00;2089315;28;20446;-86
2021/11/30 01:38:32;;;;;;;3.83;1.83;;;;;;;-2.37;100.00;92967.88;2075272;28;20037;-85
2021/11/30 01:39:38;;;;;;;2.72;1.25;;;;;;;-2.37;100.00;92971.28;2090259;28;20032;-85
2021/11/30 01:41:17;;;;;;;1.85;1.70;;;;;;;-2.36;100.00;92979.91;2093969;28;20048;-86
2021/11/30 01:42:26;;;;;;;1.30;1.20;;;;;;;-2.54;100.00;92966.38;2085799;28;20033;-85
2021/11/30 01:44:14;;;;;;;4.15;1.83;;;;;;;-2.37;100.00;92968.69;2081921;28;20029;-87
2021/11/30 01:49:34;;;;;;;2.22;1.20;;;;;;;-2.36;100.00;92964.19;2106768;28;20024;-87
2021/11/30 01:50:38;;;;;;;4.35;1.50;;;;;;;-2.34;100.00;92964.59;2105086;28;22033;-86
2021/11/30 01:51:45;;;;;;;2.55;1.75;;;;;;;-2.16;100.00;92955.31;2089494;28;20426;-86
2021/11/30 01:52:49;;;;;;;3.72;1.35;;;;;;;-2.23;100.00;92957.78;2098192;28;20869;-86
2021/11/30 01:53:52;;;;;;;1.55;1.40;;;;;;;-2.19;100.00;92960.47;2096439;28;20469;-86
2021/11/30 01:54:53;;;;;;;4.20;1.60;;;;;;;-2.01;100.00;92963.50;2094138;28;20109;-88
2021/11/30 01:55:54;;;;;;;1.95;1.15;;;;;;;-2.16;100.00;92965.78;2094662;28;20027;-85
2021/11/30 01:56:56;;;;;;;3.10;1.50;;;;;;;-2.32;100.00;92965.81;2096754;28;20020;-87
2021/11/30 01:58:01;;;;;;;1.80;1.40;;;;;;;-2.38;100.00;92967.13;2089191;28;20028;-86
2021/11/30 01:59:03;;;;;;;4.80;2.08;;;;;;;-2.30;100.00;92965.47;2089626;28;20025;-85
2021/11/30 02:00:06;;;;;;;4.78;1.88;;;;;;;-2.34;100.00;92969.84;2088124;28;20032;-86
2021/11/30 02:01:07;;;;;;;5.32;1.83;;;;;;;-2.48;100.00;92970.25;2103312;28;20028;-86
2021/11/30 02:02:24;;;;;;;4.00;1.50;;;;;;;-2.46;100.00;92959.44;2097351;28;20024;-85
2021/11/30 02:03:26;;;;;;;2.00;1.60;;;;;;;-2.20;100.00;92966.81;2094380;28;20107;-87
2021/11/30 02:04:47;;;;;;;2.97;1.40;;;;;;;-2.40;100.00;92968.59;2099407;28;20024;-86
2021/11/30 02:06:15;;;;;;;3.72;2.03;;;;;;;-2.45;100.00;92972.22;2097950;28;20432;-87
2021/11/30 02:09:05;;;;;;;3.35;1.58;;;;;;;-2.36;100.00;92983.28;2125875;27;21366;-89
2021/11/30 02:10:13;;;;;;;2.00;1.50;;;;;;;-2.21;100.00;92986.97;2117038;28;20042;-89
2021/11/30 02:11:18;;;;;;;2.92;1.73;;;;;;;-2.28;100.00;92992.06;2097259;28;20342;-89
2021/11/30 02:12:25;;;;;;;2.28;1.42;;;;;;;-2.42;100.00;92982.00;2109276;27;20054;-90
2021/11/30 02:13:27;;;;;;;3.60;1.70;;;;;;;-2.52;100.00;92982.50;2100464;28;20460;-88
2021/11/30 02:14:29;;;;;;;3.88;1.95;;;;;;;-2.54;100.00;92987.31;2095445;28;20115;-88
2021/11/30 02:15:33;;;;;;;3.38;1.70;;;;;;;-2.36;100.00;92995.59;2103510;28;20028;-87
2021/11/30 02:16:34;;;;;;;2.03;1.60;;;;;;;-2.48;100.00;92993.06;2102501;28;20460;-89
2021/11/30 02:17:40;;;;;;;5.07;1.70;;;;;;;-2.60;100.00;92991.25;2108613;28;20963;-88
2021/11/30 02:18:44;;;;;;;1.95;1.52;;;;;;;-2.65;100.00;92987.03;2103547;28;20143;-89
2021/11/30 02:20:08;;;;;;;1.73;1.60;;;;;;;-2.43;100.00;92992.81;2107503;28;20028;-89
2021/11/30 02:21:09;;;;;;;1.80;1.70;;;;;;;-2.45;100.00;92981.94;2106387;28;20039;-89
2021/11/30 02:22:13;;;;;;;1.98;1.20;;;;;;;-2.06;100.00;92986.22;2095396;28;20080;-89
2021/11/30 02:23:31;;;;;;;1.40;1.27;;;;;;;-2.29;100.00;92990.53;2097198;28;20029;-86
2021/11/30 02:24:32;;;;;;;3.83;1.92;;;;;;;-2.34;100.00;92991.53;2099907;28;20024;-89
2021/11/30 02:25:44;;;;;;;3.95;2.05;;;;;;;-2.54;100.00;92985.47;2095225;28;20072;-88
2021/11/30 02:29:22;;;;;;;2.88;1.60;;;;;;;-2.49;100.00;92983.69;2095768;28;20130;-89
2021/11/30 02:30:23;;;;;;;1.70;1.40;;;;;;;-2.42;100.00;92981.22;2108791;28;20711;-89
2021/11/30 02:31:28;;;;;;;5.43;1.60;;;;;;;-2.46;100.00;92975.16;2096667;28;20113;-88
2021/11/30 02:32:31;;;;;;;4.07;1.55;;;;;;;-2.48;100.00;92972.13;2111853;28;20028;-89
2021/11/30 02:33:33;;;;;;;3.45;1.60;;;;;;;-2.48;100.00;92972.13;2111667;28;20486;-89
2021/11/30 02:34:34;;;;;;;1.85;1.42;;;;;;;-2.47;100.00;92973.63;2110230;28;20457;-88
2021/11/30 02:35:36;;;;;;;6.07;1.90;;;;;;;-2.43;100.00;92977.09;2094839;28;20033;-89
2021/11/30 02:37:49;;;;;;;4.75;1.85;;;;;;;-2.49;100.00;92974.00;2120732;27;20023;-88
2021/11/30 02:38:51;;;;;;;5.05;2.08;;;;;;;-2.44;100.00;92965.13;2111934;28;20016;-88
2021/11/30 02:39:54;;;;;;;3.42;1.50;;;;;;;-2.48;100.00;92965.03;2103336;28;20032;-90
2021/11/30 02:40:55;;;;;;;3.15;1.48;;;;;;;-2.53;100.00;92973.91;2097881;28;20412;-87
2021/11/30 02:41:57;;;;;;;5.15;1.63;;;;;;;-2.35;100.00;92965.72;2096718;28;20033;-90
2021/11/30 02:42:58;;;;;;;1.58;1.48;;;;;;;-2.21;100.00;92973.91;2093735;28;20039;-88
2021/11/30 02:43:59;;;;;;;4.85;1.58;;;;;;;-1.99;100.00;92964.66;2095367;28;20397;-87
2021/11/30 02:45:00;;;;;;;1.77;1.40;;;;;;;-2.11;100.00;92967.38;2103280;28;20040;-90
2021/11/30 02:46:01;;;;;;;2.00;1.50;;;;;;;-2.23;100.00;92968.25;2110539;28;20040;-88
2021/11/30 02:47:08;;;;;;;5.00;1.52;;;;;;;-2.33;100.00;92960.88;2100436;28;20035;-88
2021/11/30 02:48:09;;;;;;;2.65;1.70;;;;;;;-2.33;100.00;92973.97;2096288;28;20089;-87
2021/11/30 02:49:21;;;;;;;3.83;1.90;;;;;;;-2.19;100.00;92971.72;2096503;28;20047;-89
2021/11/30 02:50:28;;;;;;;4.22;1.55;;;;;;;-2.26;100.00;92973.41;2106018;27;20036;-87
2021/11/30 02:51:36;;;;;;;1.60;1.50;;;;;;;-2.36;100.00;92964.19;2096328;28;20454;-89
2021/11/30 02:52:38;;;;;;;2.63;1.70;;;;;;;-2.46;100.00;92964.69;2096084;28;20075;-86
2021/11/30 02:53:48;;;;;;;2.13;1.73;;;;;;;-2.53;100.00;92963.44;2095527;28;20123;-89
2021/11/30 02:54:57;;;;;;;2.85;1.90;;;;;;;-2.31;100.00;92962.09;2099173;28;20052;-90
2021/11/30 02:56:02;;;;;;;3.58;1.42;;;;;;;-2.43;100.00;92956.16;2097881;28;20025;-89
2021/11/30 02:57:10;;;;;;;2.20;1.92;;;;;;;-2.39;100.00;92968.25;2095441;28;20470;-89
2021/11/30 02:58:19;;;;;;;3.35;1.63;;;;;;;-2.51;100.00;92959.72;2110894;27;20020;-88
2021/11/30 02:59:40;;;;;;;4.85;1.50;;;;;;;-2.26;100.00;92961.06;2111389;28;20423;-89
2021/11/30 03:00:48;;;;;;;2.55;1.40;;;;;;;-2.47;100.00;92956.06;2098343;28;20615;-89
2021/11/30 03:01:58;;;;;;;1.48;1.35;;;;;;;-2.40;100.00;92961.50;2097938;28;20053;-87
2021/11/30 03:02:59;;;;;;;5.50;1.90;;;;;;;-2.45;100.00;92955.75;2103219;28;20024;-87
2021/11/30 03:04:16;;;;;;;1.92;1.50;;;;;;;-2.34;100.00;92962.75;2090214;28;20425;-89
2021/11/30 03:05:18;;;;;;;3.35;1.90;;;;;;;-2.33;100.00;92966.13;2096639;28;20962;-87
2021/11/30 03:06:39;;;;;;;5.30;1.70;;;;;;;-2.53;100.00;92963.44;2109758;27;20021;-89
2021/11/30 03:07:40;;;;;;;3.60;1.63;;;;;;;-2.47;100.00;92963.94;2099171;28;20074;-89
2021/11/30 03:08:43;;;;;;;3.38;1.60;;;;;;;-2.43;100.00;92967.41;2085402;28;20075;-86
2021/11/30 03:09:52;;;;;;;2.47;1.75;;;;;;;-2.45;100.00;92969.59;2096706;28;20028;-90
2021/11/30 03:10:55;;;;;;;2.70;1.63;;;;;;;-2.26;100.00;92962.94;2100880;28;20079;-88
2021/11/30 03:11:56;;;;;;;4.32;1.50;;;;;;;-2.31;100.00;92972.56;2083906;28;20025;-88
2021/11/30 03:12:57;;;;;;;2.45;1.85;;;;;;;-2.36;100.00;92970.19;2092740;28;20116;-88
2021/11/30 03:14:00;;;;;;;3.33;1.40;;;;;;;-2.35;100.00;92966.47;2094943;28;20028;-88
2021/11/30 03:15:14;;;;;;;4.30;1.60;;;;;;;-2.47;100.00;92971.03;2091089;28;20099;-86
2021/11/30 03:16:19;;;;;;;3.65;1.77;;;;;;;-2.47;100.00;92965.78;2089805;28;20028;-90
2021/11/30 03:17:24;;;;;;;2.00;1.40;;;;;;;-2.16;100.00;92968.41;2096432;28;20031;-85
2021/11/30 03:18:32;;;;;;;4.32;1.77;;;;;;;-2.08;100.00;92969.34;2095632;28;20032;-89
2021/11/30 03:19:40;;;;;;;3.53;1.60;;;;;;;-2.14;100.00;92974.06;2088548;28;20075;-87
2021/11/30 03:20:41;;;;;;;3.05;2.10;;;;;;;-2.29;100.00;92972.19;2088826;28;20564;-88
2021/11/30 03:21:43;;;;;;;3.55;1.70;;;;;;;-2.43;100.00;92977.09;2094792;28;20143;-87
2021/11/30 03:22:46;;;;;;;6.35;1.42;;;;;;;-2.40;100.00;92979.81;2086497;28;20677;-89
2021/11/30 03:23:47;;;;;;;1.50;1.40;;;;;;;-2.39;100.00;92970.09;2081858;28;20471;-88
2021/11/30 03:24:54;;;;;;;2.08;1.35;;;;;;;-2.35;100.00;92976.19;2077368;28;20121;-87
2021/11/30 03:26:02;;;;;;;5.25;1.50;;;;;;;-2.29;100.00;92974.81;2092238;28;20573;-89
2021/11/30 03:27:09;;;;;;;2.15;1.60;;;;;;;-2.06;100.00;92973.13;2091559;28;20025;-88
2021/11/30 03:28:10;;;;;;;2.67;1.60;;;;;;;-2.16;100.00;92978.88;2090884;28;20071;-87
2021/11/30 03:29:12;;;;;;;6.07;1.67;;;;;;;-2.30;100.00;92966.22;2096721;28;20518;-89
2021/11/30 03:30:23;;;;;;;1.63;1.40;;;;;;;-2.31;100.00;92971.78;2089636;28;20024;-86
2021/11/30 03:31:34;;;;;;;4.45;1.67;;;;;;;-2.35;100.00;92974.31;2085321;28;20033;-86
2021/11/30 03:34:01;;;;;;;3.38;1.38;;;;;;;-2.13;100.00;92980.81;2097864;28;20462;-87
2021/11/30 03:35:05;;;;;;;1.40;1.30;;;;;;;-2.14;100.00;92978.56;2108593;28;20064;-88
2021/11/30 03:36:11;;;;;;;2.95;1.48;;;;;;;-2.04;100.00;92983.25;2090500;28;20032;-88
2021/11/30 03:37:12;;;;;;;3.25;1.85;;;;;;;-2.26;100.00;92978.63;2074857;28;20407;-87
2021/11/30 03:38:14;;;;;;;1.50;1.25;;;;;;;-2.21;100.00;92981.75;2087312;28;20021;-87
2021/11/30 03:39:22;;;;;;;3.35;1.63;;;;;;;-2.26;100.00;92981.25;2097260;28;20028;-85
2021/11/30 03:40:23;;;;;;;1.33;1.23;;;;;;;-2.25;100.00;92969.69;2077618;28;20401;-87
2021/11/30 03:41:25;;;;;;;3.83;1.95;;;;;;;-2.21;100.00;92970.53;2081181;28;20025;-88
2021/11/30 03:42:26;;;;;;;4.70;1.60;;;;;;;-2.25;100.00;92983.53;2093929;28;20032;-88
2021/11/30 03:43:27;;;;;;;3.13;1.73;;;;;;;-2.33;100.00;92976.59;2086889;28;20103;-88
2021/11/30 03:44:29;;;;;;;2.80;1.60;;;;;;;-2.39;100.00;92978.72;2081081;28;20033;-87
2021/11/30 03:45:30;;;;;;;4.20;1.95;;;;;;;-2.23;100.00;92975.34;2094340;28;20239;-90
2021/11/30 03:46:33;;;;;;;3.60;1.60;;;;;;;-2.21;100.00;92981.00;2090565;28;20035;-88
2021/11/30 03:47:33;;;;;;;2.67;1.60;;;;;;;-2.55;100.00;92981.34;2086180;28;20037;-87
2021/11/30 03:48:34;;;;;;;1.75;1.52;;;;;;;-2.59;100.00;92977.09;2084167;28;20024;-88
2021/11/30 03:49:38;;;;;;;4.88;2.00;;;;;;;-2.49;100.00;92988.94;2083417;28;20923;-89
2021/11/30 03:50:40;;;;;;;4.57;2.70;;;;;;;-2.49;100.00;92981.84;2092335;28;20024;-85
2021/11/30 03:51:43;;;;;;;5.68;1.83;;;;;;;-2.44;100.00;92978.22;2087508;28;20345;-87
2021/11/30 03:52:45;;;;;;;2.38;1.80;;;;;;;-2.29;100.00;92983.44;2080585;28;20748;-87
2021/11/30 03:53:46;;;;;;;2.80;1.73;;;;;;;-2.32;100.00;92986.00;2081083;28;20075;-88
2021/11/30 03:54:47;;;;;;;7.53;1.90;;;;;;;-2.50;100.00;92982.16;2082082;28;20093;-88
2021/11/30 03:55:48;;;;;;;2.53;1.73;;;;;;;-2.44;100.00;92978.22;2088647;28;20035;-87
2021/11/30 03:56:50;;;;;;;1.90;1.45;;;;;;;-2.58;100.00;92973.38;2083449;28;20026;-90
2021/11/30 03:57:51;;;;;;;2.80;1.30;;;;;;;-2.33;100.00;92977.38;2084865;28;20029;-87
2021/11/30 03:58:53;;;;;;;2.22;1.90;;;;;;;-2.40;100.00;92971.97;2081697;28;20068;-89
2021/11/30 03:59:54;;;;;;;2.88;1.60;;;;;;;-2.46;100.00;92970.69;2084186;28;20024;-88
2021/11/30 04:00:56;;;;;;;2.13;1.50;;;;;;;-2.47;100.00;92968.41;2091018;28;20024;-88
2021/11/30 04:02:25;;;;;;;2.85;2.00;;;;;;;-2.36;100.00;92974.66;2092414;28;20523;-87
2021/11/30 04:03:29;;;;;;;3.25;1.90;;;;;;;-2.54;100.00;92969.00;2088080;28;20516;-87
2021/11/30 04:04:34;;;;;;;3.03;1.65;;;;;;;-2.43;100.00;92966.63;2088714;28;20029;-88
2021/11/30 04:05:36;;;;;;;3.20;1.75;;;;;;;-2.32;100.00;92970.28;2084383;28;20062;-89
2021/11/30 04:07:02;;;;;;;6.20;1.63;;;;;;;-2.33;100.00;92969.53;2084515;28;20741;-89
2021/11/30 04:08:08;;;;;;;2.38;1.70;;;;;;;-2.33;100.00;92969.53;2084867;28;20036;-90
2021/11/30 04:09:14;;;;;;;3.88;1.80;;;;;;;-2.43;100.00;92962.16;2090591;28;20413;-88
2021/11/30 04:10:18;;;;;;;3.58;1.70;;;;;;;-2.46;100.00;92962.06;2087032;28;20021;-87
2021/11/30 04:11:24;;;;;;;2.63;1.67;;;;;;;-2.54;100.00;92958.53;2085197;28;20489;-89
2021/11/30 04:12:26;;;;;;;3.35;1.63;;;;;;;-2.42;100.00;92965.53;2075150;28;20026;-89
2021/11/30 04:13:27;;;;;;;3.42;1.75;;;;;;;-2.27;100.00;92959.56;2083192;28;20496;-88
2021/11/30 04:14:28;;;;;;;2.90;1.90;;;;;;;-2.42;100.00;92961.06;2085411;28;20068;-87
2021/11/30 04:15:29;;;;;;;3.70;1.90;;;;;;;-2.26;100.00;92949.84;2082746;28;20030;-87
2021/11/30 04:16:31;;;;;;;4.47;1.65;;;;;;;-2.33;100.00;92953.03;2093658;28;20028;-91
2021/11/30 04:17:40;;;;;;;4.97;1.85;;;;;;;-2.14;100.00;92955.75;2100653;28;20024;-89
2021/11/30 04:18:41;;;;;;;2.45;1.90;;;;;;;-2.25;100.00;92944.25;2085126;28;20031;-87
2021/11/30 04:19:43;;;;;;;4.20;1.50;;;;;;;-2.22;100.00;92955.91;2080905;28;20931;-89
2021/11/30 04:20:51;;;;;;;3.25;1.88;;;;;;;-2.38;100.00;92956.66;2088129;28;20379;-87
2021/11/30 04:21:59;;;;;;;3.97;1.65;;;;;;;-2.36;100.00;92949.25;2088824;28;20673;-88
2021/11/30 04:23:08;;;;;;;2.53;1.50;;;;;;;-2.12;100.00;92956.16;2083683;28;20049;-89
2021/11/30 04:24:15;;;;;;;1.73;1.60;;;;;;;-2.05;100.00;92953.69;2094022;28;20542;-89
2021/11/30 04:25:20;;;;;;;4.00;1.63;;;;;;;-2.16;100.00;92952.69;2089473;28;20425;-89
2021/11/30 04:26:27;;;;;;;1.58;1.48;;;;;;;-2.13;100.00;92949.41;2089083;28;20036;-87
2021/11/30 04:27:32;;;;;;;3.35;1.70;;;;;;;-2.32;100.00;92949.34;2090195;28;20033;-87
2021/11/30 04:28:38;;;;;;;2.90;1.90;;;;;;;-2.32;100.00;92951.97;2097062;28;20032;-88
2021/11/30 04:29:42;;;;;;;7.80;1.75;;;;;;;-2.34;100.00;92956.75;2096397;28;20466;-89
2021/11/30 04:30:43;;;;;;;2.65;1.48;;;;;;;-2.37;100.00;92950.34;2095237;28;20020;-89
2021/11/30 04:31:44;;;;;;;3.10;1.98;;;;;;;-2.20;100.00;92954.47;2091384;28;20032;-88
2021/11/30 04:32:45;;;;;;;2.40;1.52;;;;;;;-2.06;100.00;92949.56;2087914;28;20024;-86
2021/11/30 04:33:51;;;;;;;1.92;1.55;;;;;;;-2.38;100.00;92950.69;2089806;28;20052;-87
2021/11/30 04:35:13;;;;;;;1.38;1.27;;;;;;;-2.47;100.00;92950.09;2088029;28;20032;-88
2021/11/30 04:36:18;;;;;;;6.55;2.25;;;;;;;-2.60;100.00;92952.78;2094822;28;20058;-89
2021/11/30 04:38:01;;;;;;;1.90;1.63;;;;;;;-2.46;100.00;92959.44;2097014;28;20613;-86
2021/11/30 04:39:07;;;;;;;2.72;1.60;;;;;;;-2.37;100.00;92973.91;2101609;28;20373;-87
2021/11/30 04:40:13;;;;;;;4.38;1.92;;;;;;;-2.55;100.00;92957.78;2097580;28;20107;-86
2021/11/30 04:41:14;;;;;;;4.55;1.80;;;;;;;-2.52;100.00;92956.34;2089468;28;20354;-86
2021/11/30 04:42:15;;;;;;;3.13;1.63;;;;;;;-2.57;100.00;92964.44;2088959;28;20039;-89
2021/11/30 04:43:16;;;;;;;3.35;2.08;;;;;;;-2.46;100.00;92962.81;2088031;28;20067;-87
2021/11/30 04:44:19;;;;;;;2.35;1.92;;;;;;;-2.47;100.00;92963.16;2080441;28;20489;-86
2021/11/30 04:45:26;;;;;;;2.53;1.67;;;;;;;-2.23;100.00;92968.25;2080818;28;20033;-90
2021/11/30 04:46:39;;;;;;;5.50;1.80;;;;;;;-2.07;100.00;92963.75;2075611;28;20026;-88
2021/11/30 04:47:47;;;;;;;4.55;1.65;;;;;;;-2.19;100.00;92968.34;2092798;28;20056;-90
2021/11/30 04:49:15;;;;;;;3.90;1.92;;;;;;;-2.28;100.00;92966.66;2089719;28;20021;-89
2021/11/30 04:50:25;;;;;;;5.88;2.05;;;;;;;-2.46;100.00;92960.22;2096212;28;20488;-87
2021/11/30 04:51:30;;;;;;;3.72;1.60;;;;;;;-2.50;100.00;92956.78;2099031;28;20036;-87
2021/11/30 04:52:32;;;;;;;2.63;1.75;;;;;;;-2.53;100.00;92958.19;2082263;28;20420;-87
2021/11/30 04:53:33;;;;;;;1.92;1.73;;;;;;;-2.56;100.00;92951.00;2079207;28;20116;-89
2021/11/30 04:54:35;;;;;;;3.78;1.65;;;;;;;-2.77;100.00;92947.88;2077526;28;21081;-89
2021/11/30 04:56:15;;;;;;;5.75;1.88;;;;;;;-2.72;100.00;92952.09;2076116;28;20064;-89
2021/11/30 04:57:20;;;;;;;2.70;1.58;;;;;;;-2.41;100.00;92946.13;2086189;28;20041;-88
2021/11/30 04:58:34;;;;;;;2.35;2.15;;;;;;;-2.39;100.00;92947.31;2081398;28;20361;-89
2021/11/30 04:59:36;;;;;;;2.33;1.50;;;;;;;-2.48;100.00;92933.63;2097463;28;20123;-88
2021/11/30 05:00:37;;;;;;;2.33;2.10;;;;;;;-2.58;100.00;92934.91;2103614;28;20023;-88
2021/11/30 05:01:39;;;;;;;2.92;2.20;;;;;;;-2.63;100.00;92932.53;2092157;28;20915;-89
2021/11/30 05:02:44;;;;;;;3.10;2.05;;;;;;;-2.59;100.00;92936.00;2091877;28;20032;-87
2021/11/30 05:04:05;;;;;;;4.00;1.85;;;;;;;-2.62;100.00;92936.66;2095628;28;20040;-87
2021/11/30 05:05:07;;;;;;;4.25;1.75;;;;;;;-2.61;100.00;92935.56;2090418;28;20028;-88
2021/11/30 05:06:31;;;;;;;1.92;1.48;;;;;;;-2.60;100.00;92938.94;2088734;28;20032;-89
2021/11/30 05:07:33;;;;;;;2.60;1.85;;;;;;;-2.68;100.00;92930.16;2088944;28;20033;-88
2021/11/30 05:08:44;;;;;;;4.03;1.90;;;;;;;-2.62;100.00;92925.44;2088043;28;20475;-86
2021/11/30 05:09:45;;;;;;;4.15;2.00;;;;;;;-2.24;100.00;92929.31;2096042;28;20053;-89
2021/11/30 05:10:50;;;;;;;5.05;2.40;;;;;;;-2.32;100.00;92928.41;2098705;28;20451;-86
2021/11/30 05:11:51;;;;;;;3.47;2.45;;;;;;;-2.41;100.00;92931.19;2099492;28;20107;-87
2021/11/30 05:12:55;;;;;;;3.25;2.45;;;;;;;-2.49;100.00;92928.75;2088225;28;20653;-87
2021/11/30 05:14:03;;;;;;;2.30;2.10;;;;;;;-2.51;100.00;92933.53;2088384;28;20497;-86
2021/11/30 05:15:10;;;;;;;3.25;1.70;;;;;;;-2.46;100.00;92934.03;2090222;28;20510;-87
2021/11/30 05:16:16;;;;;;;2.83;2.17;;;;;;;-2.50;100.00;92930.59;2088828;28;20040;-88
2021/11/30 05:17:18;;;;;;;5.00;2.30;;;;;;;-2.63;100.00;92926.56;2093912;28;20024;-87